Aérodrome :
LOGIN :

S'inscrire | Disclaimer

   EN    FR    IT 

 










Légende :    VFR   VFR Marginal   IFR   IFR Intensif   IFR Très Intensif
Visi : 
Plafond : 
>= 8 km
>= 3000ft
5 à 8 km
1000 à 3000 ft
1500m à 5 km
500 à 1000 ft
800 à 1500m
200 à 500 ft
< 800m
< 200 ft
Symboles :   Orages  Brouillard  Fortes neiges  Fortes précipitations  Vent > 20 kt
SIGMETs :   Divers  Orages  Givrage  Turbulence  Onde Orograph.  Cendres Volcan.







- Altitude de l'aérodrome : 122 ft
- Code IATA : TXL


EDDT - Berlin Tegel Int.

DERNIER METAR :
  • 211720Z 26007KT 9999 BKN026 10/06 Q1022 NOSIG

METARs EXPIRÉS :
  • 211650Z 26009KT 9999 BKN026 09/06 Q1022 NOSIG
  • 211620Z 26008KT 9999 BKN026 10/06 Q1022 NOSIG
  • 211550Z 27009KT 9999 BKN027 10/06 Q1022 NOSIG
  • 211520Z 26009KT 9999 -RA BKN027 10/06 Q1022 NOSIG
  • 211450Z 27008KT 9999 -RA BKN029 09/06 Q1022 NOSIG

TAF TAF EDDT
Valide du 21 à 18h jusqu'au 22 à 18h UTC


211700Z 2118/2218 26009KT 9999 BKN020
BECMG 2118/2120 BKN011
BECMG 2120/2122 32010KT 4000 -RADZ BR BKN006
BECMG 2203/2206 02010KT
BECMG 2207/2210 9999 SCT015
BECMG 2214/2216 08007KT
Pas de NOTAMs connus pour ce terrain.



MET'MAP, la Météo Aéronautique d'un coup d'oeil ! - Copyright ORBIFLY Décembre 2007 - Disclaimer

ORBIFLY MET'MAP TEAM :

Programmation & Développement : Alexandra Zaïnal
Conception & Développement : Baudouin d'Aumeries
Co-Programmation & Développement : Marc-Olivier Méhu
Soutien technique & logistique : Manuel Goepfert

Contact : metmap@orbifly.com




SOURCES & CREDITS :

   NOAA